Terminal Aerodrome Forecast
Issued by NWS St Louis, MO

Home | Current Version | Previous Version | Text Only | Print | Product List | Glossary On
Versions: 1 2 3 4 5 6 7 8 9 10 11 12 13 14 15 16 17 18 19 20 21 22 23 24 25 26
000
FTUS43 KLSX 210529
TAFCOU
TAF
KCOU 210529Z 2106/2206 36012KT P6SM OVC010
      TEMPO 2106/2108 -FZRA OVC008
     FM210800 35013G19KT P6SM BKN015
     FM211200 36013G20KT P6SM BKN020
     FM211300 36012G20KT P6SM BKN250
     FM220100 05010KT P6SM BKN025=

USA.gov is the U.S. government's official web portal to all federal, state and local government web resources and services.